createdAt,value
2019-04-10T00:00:44.184Z,7.64
2019-04-10T00:03:24.161Z,7.60
2019-04-10T00:05:41.118Z,7.59
2019-04-10T00:08:08.472Z,7.55
2019-04-10T00:10:36.196Z,7.52
2019-04-10T00:13:04.439Z,7.46
2019-04-10T00:15:32.657Z,7.42
2019-04-10T00:17:59.935Z,7.38
2019-04-10T00:20:27.018Z,7.34
2019-04-10T00:22:54.830Z,7.29
2019-04-10T00:25:21.992Z,7.25
2019-04-10T00:27:49.080Z,7.20
2019-04-10T00:30:16.645Z,7.16
2019-04-10T00:32:43.961Z,7.12
2019-04-10T00:35:11.125Z,7.11
2019-04-10T00:37:38.245Z,7.06
2019-04-10T00:40:06.815Z,7.01
2019-04-10T00:42:34.880Z,6.98
2019-04-10T00:45:02.224Z,6.94
2019-04-10T00:47:29.293Z,6.94
2019-04-10T00:49:56.367Z,6.90
2019-04-10T00:52:24.092Z,6.87
2019-04-10T00:54:53.224Z,6.84
2019-04-10T00:57:21.294Z,6.81
2019-04-10T00:59:48.518Z,6.77
2019-04-10T01:02:16.466Z,6.77
2019-04-10T01:04:44.639Z,6.71
2019-04-10T01:07:36.593Z,6.67
2019-04-10T01:09:59.353Z,6.64
2019-04-10T01:12:26.490Z,6.60
2019-04-10T01:14:54.042Z,6.59
2019-04-10T01:17:22.186Z,6.58
2019-04-10T01:19:50.279Z,6.57
2019-04-10T01:22:17.452Z,6.53
2019-04-10T01:24:45.988Z,6.51
2019-04-10T01:27:13.926Z,6.48
2019-04-10T01:29:41.893Z,6.45
2019-04-10T01:32:09.770Z,6.45
2019-04-10T01:34:37.863Z,6.42
2019-04-10T01:37:05.101Z,6.39
2019-04-10T01:39:32.730Z,6.38
2019-04-10T01:42:00.597Z,6.34
2019-04-10T01:44:28.903Z,6.32
2019-04-10T01:46:56.972Z,6.30
2019-04-10T01:49:24.179Z,6.28
2019-04-10T01:51:51.872Z,6.27
2019-04-10T01:54:19.382Z,6.24
2019-04-10T01:56:46.531Z,6.21
2019-04-10T01:59:14.704Z,6.22
2019-04-10T02:01:49.001Z,6.21
2019-04-10T02:04:16.351Z,6.18
2019-04-10T02:06:43.506Z,6.14
2019-04-10T02:09:10.981Z,6.10
2019-04-10T02:11:38.190Z,6.07
2019-04-10T02:14:05.732Z,6.02
2019-04-10T02:16:33.058Z,6.00
2019-04-10T02:19:00.140Z,5.96
2019-04-10T02:21:27.534Z,5.96
2019-04-10T02:23:54.713Z,5.92
2019-04-10T02:26:21.781Z,5.91
2019-04-10T02:28:48.879Z,5.87
2019-04-10T02:31:16.068Z,5.84
2019-04-10T02:33:43.151Z,5.83
2019-04-10T02:36:10.867Z,5.79
2019-04-10T02:38:53.233Z,5.78
2019-04-10T02:41:08.367Z,5.75
2019-04-10T02:43:36.563Z,5.68
2019-04-10T02:46:06.560Z,5.66
2019-04-10T02:48:34.044Z,5.64
2019-04-10T02:51:01.962Z,5.62
2019-04-10T02:53:29.628Z,5.61
2019-04-10T02:55:58.228Z,5.60
2019-04-10T02:58:26.528Z,5.54
2019-04-10T03:00:54.854Z,5.51
2019-04-10T03:03:22.608Z,5.49
2019-04-10T03:05:54.306Z,5.44
2019-04-10T03:08:38.282Z,5.42
2019-04-10T03:10:56.792Z,5.39
2019-04-10T03:13:19.828Z,5.35
2019-04-10T03:15:47.649Z,5.32
2019-04-10T03:18:14.900Z,5.30
2019-04-10T03:20:42.743Z,5.28
2019-04-10T03:23:11.443Z,5.26
2019-04-10T03:26:09.729Z,5.22
2019-04-10T03:28:36.912Z,5.21
2019-04-10T03:31:10.641Z,5.15
2019-04-10T03:33:55.266Z,5.12
2019-04-10T03:36:21.253Z,5.11
2019-04-10T03:38:57.755Z,5.07
2019-04-10T03:41:17.777Z,5.02
2019-04-10T03:43:45.821Z,5.00
2019-04-10T03:46:13.091Z,4.97
2019-04-10T03:48:41.034Z,4.98
2019-04-10T03:51:08.281Z,4.95
2019-04-10T03:53:35.392Z,4.93
2019-04-10T03:56:02.574Z,4.91
2019-04-10T03:58:29.615Z,4.89
2019-04-10T04:00:56.664Z,4.86
2019-04-10T04:03:24.595Z,4.83
2019-04-10T04:05:53.128Z,4.81
2019-04-10T04:08:21.451Z,4.78
2019-04-10T04:10:49.360Z,4.74
2019-04-10T04:13:17.471Z,4.73
2019-04-10T04:15:44.668Z,4.68
2019-04-10T04:18:12.916Z,4.68
2019-04-10T04:20:41.203Z,4.65
2019-04-10T04:23:09.598Z,4.62
2019-04-10T04:25:36.835Z,4.57
2019-04-10T04:28:04.624Z,4.52
2019-04-10T04:30:32.101Z,4.47
2019-04-10T04:32:59.246Z,4.42
2019-04-10T04:35:26.302Z,4.38
2019-04-10T04:37:54.882Z,4.37
2019-04-10T04:40:23.781Z,4.31
2019-04-10T04:43:00.175Z,4.28
2019-04-10T04:45:27.811Z,4.24
2019-04-10T04:47:55.602Z,4.22
2019-04-10T04:50:22.868Z,4.19
2019-04-10T04:52:49.934Z,4.16
2019-04-10T04:55:17.652Z,4.10
2019-04-10T04:57:45.087Z,4.06
2019-04-10T05:00:13.182Z,4.05
2019-04-10T05:02:40.431Z,4.04
2019-04-10T05:05:08.665Z,4.02
2019-04-10T05:07:35.888Z,4.01
2019-04-10T05:10:04.754Z,3.99
2019-04-10T05:12:31.915Z,4.00
2019-04-10T05:14:59.044Z,3.96
2019-04-10T05:17:28.780Z,3.96
2019-04-10T05:19:56.130Z,3.97
2019-04-10T05:22:24.379Z,3.97
2019-04-10T05:24:52.316Z,3.96
2019-04-10T05:27:19.484Z,3.96
2019-04-10T05:29:47.145Z,3.98
2019-04-10T05:32:14.502Z,3.99
2019-04-10T05:34:43.204Z,4.02
2019-04-10T05:37:11.419Z,4.02
2019-04-10T05:39:43.341Z,4.05
2019-04-10T05:42:08.476Z,4.07
2019-04-10T05:44:36.045Z,4.12
2019-04-10T05:47:03.399Z,4.17
2019-04-10T05:49:31.060Z,4.17
2019-04-10T05:51:58.213Z,4.20
2019-04-10T05:54:25.281Z,4.24
2019-04-10T05:56:52.622Z,4.25
2019-04-10T05:59:19.806Z,4.32
2019-04-10T06:01:46.870Z,4.33
2019-04-10T06:04:14.072Z,4.35
2019-04-10T06:06:41.359Z,4.41
2019-04-10T06:09:09.149Z,4.47
2019-04-10T06:11:37.348Z,4.49
2019-04-10T06:14:05.274Z,4.53
2019-04-10T06:16:32.521Z,4.55
2019-04-10T06:18:59.836Z,4.62
2019-04-10T06:21:27.292Z,4.67
2019-04-10T06:23:56.683Z,4.72
2019-04-10T06:26:23.937Z,4.79
2019-04-10T06:28:51.029Z,4.81
2019-04-10T06:31:18.684Z,4.89
2019-04-10T06:33:46.440Z,4.95
2019-04-10T06:36:13.605Z,5.01
2019-04-10T06:38:41.212Z,5.07
2019-04-10T06:41:08.415Z,5.17
2019-04-10T06:43:35.529Z,5.19
2019-04-10T06:46:02.558Z,5.24
2019-04-10T06:48:29.690Z,5.35
2019-04-10T06:50:56.764Z,5.34
2019-04-10T06:53:24.755Z,5.41
2019-04-10T06:55:52.386Z,5.46
2019-04-10T06:58:20.110Z,5.51
2019-04-10T07:00:52.181Z,5.51
2019-04-10T07:03:16.932Z,5.60
2019-04-10T07:05:59.688Z,5.67
2019-04-10T07:08:17.295Z,5.78
2019-04-10T07:10:52.110Z,5.81
2019-04-10T07:13:13.077Z,5.86
2019-04-10T07:15:43.628Z,5.88
2019-04-10T07:18:14.441Z,5.96
2019-04-10T07:20:39.959Z,6.04
2019-04-10T07:23:07.144Z,6.14
2019-04-10T07:25:35.360Z,6.16
2019-04-10T07:28:05.036Z,6.29
2019-04-10T07:30:31.877Z,6.31
2019-04-10T07:32:59.329Z,6.36
2019-04-10T07:35:30.765Z,6.45
2019-04-10T07:37:57.791Z,6.51
2019-04-10T07:40:24.980Z,6.56
2019-04-10T07:42:52.547Z,6.64
2019-04-10T07:45:19.722Z,6.73
2019-04-10T07:47:46.850Z,6.74
2019-04-10T07:50:14.369Z,6.79
2019-04-10T07:52:41.533Z,6.86
2019-04-10T07:55:08.745Z,6.97
2019-04-10T07:57:36.387Z,6.96
2019-04-10T08:00:04.076Z,6.92
2019-04-10T08:02:31.821Z,6.96
2019-04-10T08:04:59.812Z,7.00
2019-04-10T08:07:32.751Z,7.12
2019-04-10T08:09:56.471Z,7.27
2019-04-10T08:12:23.540Z,7.31
2019-04-10T08:14:50.687Z,7.37
2019-04-10T08:17:17.771Z,7.42
2019-04-10T08:19:45.332Z,7.49
2019-04-10T08:22:12.864Z,7.55
2019-04-10T08:24:40.535Z,7.62
2019-04-10T08:27:07.752Z,7.67
2019-04-10T08:29:34.816Z,7.79
2019-04-10T08:32:01.910Z,7.86
2019-04-10T08:34:31.446Z,7.94
2019-04-10T08:36:59.684Z,8.00
2019-04-10T08:39:35.973Z,8.01
2019-04-10T08:41:55.896Z,8.07
2019-04-10T08:44:24.217Z,8.14
2019-04-10T08:46:52.541Z,8.22
2019-04-10T08:49:21.231Z,8.20
2019-04-10T08:51:48.542Z,8.21
2019-04-10T08:54:16.201Z,8.22
2019-04-10T08:56:43.393Z,8.34
2019-04-10T08:59:10.476Z,8.34
2019-04-10T09:01:39.700Z,8.45
2019-04-10T09:04:07.766Z,8.49
2019-04-10T09:06:35.599Z,8.42
2019-04-10T09:09:05.464Z,8.52
2019-04-10T09:11:33.943Z,8.53
2019-04-10T09:14:01.156Z,8.61
2019-04-10T09:16:28.847Z,8.61
2019-04-10T09:18:56.066Z,8.67
2019-04-10T09:21:23.693Z,8.69
2019-04-10T09:23:53.338Z,8.89
2019-04-10T09:26:20.340Z,8.91
2019-04-10T09:28:48.594Z,8.93
2019-04-10T09:31:16.115Z,9.01
2019-04-10T09:33:43.303Z,9.06
2019-04-10T09:36:11.191Z,9.04
2019-04-10T09:38:38.936Z,9.16
2019-04-10T09:41:06.197Z,9.18
2019-04-10T09:43:33.876Z,9.37
2019-04-10T09:46:02.181Z,9.49
2019-04-10T09:48:29.631Z,9.53
2019-04-10T09:50:56.790Z,9.51
2019-04-10T09:53:24.562Z,9.52
2019-04-10T09:55:52.454Z,9.45
2019-04-10T09:58:19.896Z,9.54
2019-04-10T10:00:48.199Z,9.57
2019-04-10T10:03:15.526Z,9.70
2019-04-10T10:05:42.580Z,9.82
2019-04-10T10:08:10.577Z,9.88
2019-04-10T10:10:38.838Z,9.93
2019-04-10T10:13:07.491Z,9.94
2019-04-10T10:15:35.586Z,9.96
2019-04-10T10:18:05.474Z,10.01
2019-04-10T10:20:32.616Z,10.14
2019-04-10T10:22:59.713Z,10.20
2019-04-10T10:25:27.036Z,10.28
2019-04-10T10:27:54.456Z,10.35
2019-04-10T10:30:21.720Z,10.41
2019-04-10T10:32:48.974Z,10.35
2019-04-10T10:35:16.764Z,10.42
2019-04-10T10:37:43.999Z,10.56
2019-04-10T10:40:11.819Z,10.72
2019-04-10T10:42:41.511Z,10.78
2019-04-10T10:45:10.467Z,10.85
2019-04-10T10:47:38.368Z,10.99
2019-04-10T10:50:06.658Z,11.04
2019-04-10T10:52:33.873Z,11.07
2019-04-10T10:55:01.123Z,11.31
2019-04-10T10:57:28.214Z,11.38
2019-04-10T10:59:55.285Z,11.39
2019-04-10T11:02:22.373Z,11.44
2019-04-10T11:04:49.625Z,11.47
2019-04-10T11:07:16.823Z,11.56
2019-04-10T11:09:44.447Z,11.69
2019-04-10T11:12:12.234Z,11.73
2019-04-10T11:14:39.618Z,11.78
2019-04-10T11:17:06.859Z,11.91
2019-04-10T11:19:35.499Z,11.88
2019-04-10T11:22:05.017Z,11.90
2019-04-10T11:24:33.254Z,11.83
2019-04-10T11:27:00.496Z,12.04
2019-04-10T11:29:28.751Z,12.20
2019-04-10T11:31:56.141Z,12.26
2019-04-10T11:34:24.231Z,12.34
2019-04-10T11:37:12.931Z,12.55
2019-04-10T11:39:25.543Z,12.66
2019-04-10T11:41:50.435Z,12.74
2019-04-10T11:44:20.282Z,12.85
2019-04-10T11:46:46.696Z,12.97
2019-04-10T11:49:15.492Z,12.93
2019-04-10T11:51:45.325Z,12.92
2019-04-10T11:54:14.623Z,12.99
2019-04-10T11:56:42.661Z,13.15
2019-04-10T11:59:12.370Z,13.38
2019-04-10T12:01:39.364Z,13.49
2019-04-10T12:04:10.094Z,13.73
2019-04-10T12:06:37.812Z,13.65
2019-04-10T12:09:45.215Z,13.61
2019-04-10T12:11:42.594Z,13.62
2019-04-10T12:14:09.677Z,13.59
2019-04-10T12:16:36.914Z,13.57
2019-04-10T12:19:04.772Z,13.74
2019-04-10T12:21:31.887Z,13.93
2019-04-10T12:23:59.057Z,14.18
2019-04-10T12:26:26.257Z,14.56
2019-04-10T12:28:53.974Z,14.81
2019-04-10T12:31:21.178Z,15.07
2019-04-10T12:33:48.264Z,15.09
2019-04-10T12:36:15.350Z,15.17
2019-04-10T12:38:43.494Z,15.43
2019-04-10T12:41:12.577Z,15.75
2019-04-10T12:43:39.703Z,16.23
2019-04-10T12:46:06.848Z,16.25
2019-04-10T12:48:34.736Z,16.35
2019-04-10T12:51:01.996Z,16.62
2019-04-10T12:53:29.612Z,17.04
2019-04-10T12:55:57.784Z,16.78
2019-04-10T12:58:24.955Z,16.99
2019-04-10T13:00:52.245Z,16.93
2019-04-10T13:03:19.486Z,16.79
2019-04-10T13:05:46.554Z,16.57
2019-04-10T13:08:21.296Z,16.39
2019-04-10T13:10:43.464Z,16.38
2019-04-10T13:13:11.550Z,16.66
2019-04-10T13:15:39.333Z,16.83
2019-04-10T13:18:06.550Z,16.60
2019-04-10T13:20:33.740Z,16.74
2019-04-10T13:23:00.848Z,16.50
2019-04-10T13:25:28.191Z,16.96
2019-04-10T13:27:55.399Z,17.02
2019-04-10T13:30:22.853Z,17.10
2019-04-10T13:32:50.127Z,16.84
2019-04-10T13:35:17.949Z,16.82
2019-04-10T13:37:46.833Z,16.80
2019-04-10T13:40:15.207Z,16.97
2019-04-10T13:42:42.355Z,17.09
2019-04-10T13:45:09.546Z,16.77
2019-04-10T13:47:38.585Z,16.62
2019-04-10T13:50:06.738Z,17.01
2019-04-10T13:52:36.308Z,17.18
2019-04-10T13:55:05.205Z,17.17
2019-04-10T13:57:32.826Z,17.14
2019-04-10T13:59:59.971Z,17.08
2019-04-10T14:02:37.536Z,17.04
2019-04-10T14:05:07.415Z,17.31
2019-04-10T14:07:35.976Z,17.21
2019-04-10T14:10:06.988Z,16.81
2019-04-10T14:12:37.070Z,16.61
2019-04-10T14:15:04.974Z,16.49
2019-04-10T14:17:33.336Z,16.43
2019-04-10T14:20:00.435Z,16.48
2019-04-10T14:22:27.532Z,16.21
2019-04-10T14:24:55.501Z,16.07
2019-04-10T14:27:24.687Z,15.86
2019-04-10T14:29:51.758Z,15.66
2019-04-10T14:32:33.414Z,15.49
2019-04-10T14:35:01.051Z,15.20
2019-04-10T14:37:29.210Z,15.19
2019-04-10T14:39:57.782Z,15.03
2019-04-10T14:42:25.215Z,15.12
2019-04-10T14:44:53.025Z,15.05
2019-04-10T14:47:20.400Z,15.16
2019-04-10T14:49:53.615Z,15.21
2019-04-10T14:52:21.034Z,15.22
2019-04-10T14:54:48.308Z,15.16
2019-04-10T14:57:16.930Z,15.04
2019-04-10T14:59:44.276Z,14.98
2019-04-10T15:02:12.677Z,15.03
2019-04-10T15:04:39.866Z,14.89
2019-04-10T15:07:08.025Z,14.75
2019-04-10T15:09:35.499Z,14.84
2019-04-10T15:12:02.868Z,14.91
2019-04-10T15:14:32.539Z,15.00
2019-04-10T15:17:04.035Z,15.05
2019-04-10T15:19:28.962Z,14.93
2019-04-10T15:21:56.328Z,14.89
2019-04-10T15:24:23.790Z,14.74
2019-04-10T15:26:51.314Z,14.76
2019-04-10T15:29:18.498Z,14.96
2019-04-10T15:31:45.996Z,14.87
2019-04-10T15:34:14.026Z,14.61
2019-04-10T15:36:43.493Z,14.34
2019-04-10T15:39:10.625Z,14.29
2019-04-10T15:41:37.791Z,14.13
2019-04-10T15:44:05.773Z,14.08
2019-04-10T15:46:33.195Z,14.32
2019-04-10T15:49:00.558Z,14.43
2019-04-10T15:51:27.972Z,14.49
2019-04-10T15:53:55.247Z,14.31
2019-04-10T15:56:22.311Z,14.18
2019-04-10T15:58:49.944Z,14.05
2019-04-10T16:01:19.421Z,14.01
2019-04-10T16:03:47.215Z,13.92
2019-04-10T16:06:52.120Z,13.88
2019-04-10T16:09:21.075Z,13.81
2019-04-10T16:12:14.505Z,13.78
2019-04-10T16:14:41.691Z,13.73
2019-04-10T16:17:31.379Z,13.67
2019-04-10T16:20:18.127Z,13.62
2019-04-10T16:23:10.734Z,13.67
2019-04-10T16:25:40.409Z,13.58
2019-04-10T16:28:08.298Z,13.45
2019-04-10T16:30:36.949Z,13.48
2019-04-10T16:33:04.963Z,13.49
2019-04-10T16:35:35.159Z,13.47
2019-04-10T16:38:02.320Z,13.26
2019-04-10T16:40:29.919Z,13.22
2019-04-10T16:42:57.379Z,13.17
2019-04-10T16:45:24.609Z,13.08
2019-04-10T16:47:52.597Z,12.97
2019-04-10T16:50:19.714Z,12.92
2019-04-10T16:52:47.361Z,12.89
2019-04-10T16:55:15.475Z,12.78
2019-04-10T16:57:49.465Z,12.76
2019-04-10T17:00:18.248Z,12.60
2019-04-10T17:02:46.503Z,12.47
2019-04-10T17:05:16.510Z,12.47
2019-04-10T17:07:43.732Z,12.42
2019-04-10T17:10:18.095Z,12.30
2019-04-10T17:12:40.643Z,12.27
2019-04-10T17:15:10.154Z,12.16
2019-04-10T17:17:38.619Z,12.08
2019-04-10T17:20:07.018Z,11.94
2019-04-10T17:22:42.072Z,11.77
2019-04-10T17:25:04.149Z,11.60
2019-04-10T17:27:31.998Z,11.45
2019-04-10T17:29:59.180Z,11.30
2019-04-10T17:32:26.999Z,11.25
2019-04-10T17:34:54.853Z,11.15
2019-04-10T17:37:23.334Z,11.01
2019-04-10T17:39:51.465Z,10.88
2019-04-10T17:42:19.936Z,10.83
2019-04-10T17:44:47.821Z,10.70
2019-04-10T17:47:15.092Z,10.63
2019-04-10T17:49:43.413Z,10.54
2019-04-10T17:52:10.571Z,10.44
2019-04-10T17:54:38.690Z,10.39
2019-04-10T17:57:12.845Z,10.24
2019-04-10T17:59:40.678Z,10.16
2019-04-10T18:02:11.713Z,10.05
2019-04-10T18:04:40.023Z,9.92
2019-04-10T18:07:07.952Z,9.85
2019-04-10T18:09:36.875Z,9.76
2019-04-10T18:12:05.929Z,9.67
2019-04-10T18:14:36.103Z,9.57
2019-04-10T18:17:02.626Z,9.51
2019-04-10T18:19:30.904Z,9.42
2019-04-10T18:21:58.373Z,9.35
2019-04-10T18:24:26.218Z,9.28
2019-04-10T18:26:54.161Z,9.21
2019-04-10T18:29:23.257Z,9.13
2019-04-10T18:31:50.981Z,9.03
2019-04-10T18:34:19.417Z,8.94
2019-04-10T18:36:48.666Z,8.87
2019-04-10T18:39:18.310Z,8.79
2019-04-10T18:41:46.602Z,8.69
2019-04-10T18:44:13.690Z,8.60
2019-04-10T18:46:41.687Z,8.50
2019-04-10T18:49:09.347Z,8.46
2019-04-10T18:51:36.659Z,8.42
2019-04-10T18:54:03.933Z,8.36
2019-04-10T18:56:31.344Z,8.28
2019-04-10T18:59:05.008Z,8.20
2019-04-10T19:01:40.487Z,8.10
2019-04-10T19:04:30.814Z,8.08
2019-04-10T19:06:59.040Z,8.00
2019-04-10T19:09:30.441Z,7.92
2019-04-10T19:12:02.607Z,7.92
2019-04-10T19:14:30.348Z,7.87
2019-04-10T19:16:58.268Z,7.84
2019-04-10T19:19:26.059Z,7.80
2019-04-10T19:21:55.897Z,7.75
2019-04-10T19:24:25.910Z,7.65
2019-04-10T19:26:53.798Z,7.59
2019-04-10T19:29:21.447Z,7.57
2019-04-10T19:31:52.043Z,7.52
2019-04-10T19:34:19.232Z,7.46
2019-04-10T19:36:48.248Z,7.42
2019-04-10T19:39:16.072Z,7.40
2019-04-10T19:41:44.845Z,7.38
2019-04-10T19:44:31.035Z,7.33
2019-04-10T19:46:58.723Z,7.29
2019-04-10T19:49:25.985Z,7.26
2019-04-10T19:51:53.054Z,7.22
2019-04-10T19:54:20.211Z,7.18
2019-04-10T19:56:47.303Z,7.12
2019-04-10T19:59:22.811Z,7.08
2019-04-10T20:01:50.755Z,7.06
2019-04-10T20:04:18.829Z,7.01
2019-04-10T20:06:48.885Z,6.99
2019-04-10T20:09:17.809Z,6.93
2019-04-10T20:11:50.075Z,6.88
2019-04-10T20:14:34.705Z,6.83
2019-04-10T20:17:02.026Z,6.77
2019-04-10T20:19:29.150Z,6.69
2019-04-10T20:21:56.721Z,6.64
2019-04-10T20:24:24.943Z,6.64
2019-04-10T20:26:52.253Z,6.60
2019-04-10T20:29:19.592Z,6.58
2019-04-10T20:31:50.151Z,6.55
2019-04-10T20:34:19.052Z,6.49
2019-04-10T20:36:47.052Z,6.42
2019-04-10T20:39:27.424Z,6.34
2019-04-10T20:41:58.348Z,6.29
2019-04-10T20:44:24.919Z,6.23
2019-04-10T20:46:52.787Z,6.18
2019-04-10T20:49:20.443Z,6.15
2019-04-10T20:51:50.450Z,6.10
2019-04-10T20:54:17.897Z,6.05
2019-04-10T20:56:45.028Z,6.00
2019-04-10T20:59:12.152Z,5.98
2019-04-10T21:01:39.368Z,5.92
2019-04-10T21:04:07.319Z,5.86
2019-04-10T21:06:34.461Z,5.79
2019-04-10T21:09:21.387Z,5.75
2019-04-10T21:11:59.832Z,5.70
2019-04-10T21:14:17.610Z,5.67
2019-04-10T21:16:45.248Z,5.63
2019-04-10T21:19:14.123Z,5.58
2019-04-10T21:21:43.345Z,5.56
2019-04-10T21:24:27.504Z,5.54
2019-04-10T21:27:32.606Z,5.52
2019-04-10T21:30:31.775Z,5.46
2019-04-10T21:34:01.454Z,5.40
2019-04-10T21:36:28.923Z,5.34
2019-04-10T21:39:12.361Z,5.25
2019-04-10T21:41:41.056Z,5.20
2019-04-10T21:44:13.457Z,5.10
2019-04-10T21:46:41.004Z,4.94
2019-04-10T21:49:08.288Z,4.87
2019-04-10T21:51:35.406Z,4.81
2019-04-10T21:54:02.504Z,4.83
2019-04-10T21:56:30.925Z,4.83
2019-04-10T21:58:59.132Z,4.80
2019-04-10T22:01:26.620Z,4.79
2019-04-10T22:03:54.232Z,4.76
2019-04-10T22:06:41.042Z,4.75
2019-04-10T22:09:37.457Z,4.75
2019-04-10T22:12:23.650Z,4.73
2019-04-10T22:14:43.880Z,4.72
2019-04-10T22:17:11.329Z,4.70
2019-04-10T22:19:39.504Z,4.67
2019-04-10T22:22:06.953Z,4.61
2019-04-10T22:24:34.131Z,4.56
2019-04-10T22:27:01.531Z,4.50
2019-04-10T22:29:28.859Z,4.45
2019-04-10T22:31:55.922Z,4.40
2019-04-10T22:34:34.183Z,4.38
2019-04-10T22:37:02.204Z,4.32
2019-04-10T22:39:31.686Z,4.26
2019-04-10T22:41:59.034Z,4.20
2019-04-10T22:44:34.697Z,4.15
2019-04-10T22:46:55.624Z,4.12
2019-04-10T22:49:22.918Z,4.08
2019-04-10T22:51:50.000Z,4.05
2019-04-10T22:54:17.923Z,4.01
2019-04-10T22:56:45.633Z,3.97
2019-04-10T22:59:13.582Z,3.92
2019-04-10T23:01:40.799Z,3.89
2019-04-10T23:04:08.085Z,3.86
2019-04-10T23:06:35.411Z,3.86
2019-04-10T23:09:04.172Z,3.81
2019-04-10T23:12:09.857Z,3.78
2019-04-10T23:14:38.571Z,3.75
2019-04-10T23:17:05.815Z,3.71
2019-04-10T23:19:32.924Z,3.68
2019-04-10T23:22:01.243Z,3.66
2019-04-10T23:24:29.694Z,3.66
2019-04-10T23:26:57.570Z,3.64
2019-04-10T23:29:24.839Z,3.63
2019-04-10T23:31:52.157Z,3.63
2019-04-10T23:34:19.243Z,3.60
2019-04-10T23:36:46.564Z,3.57
2019-04-10T23:39:14.277Z,3.54
2019-04-10T23:41:42.069Z,3.51
2019-04-10T23:44:09.268Z,3.46
2019-04-10T23:46:36.841Z,3.43
2019-04-10T23:49:04.045Z,3.40
2019-04-10T23:51:31.549Z,3.37
2019-04-10T23:53:58.612Z,3.32
2019-04-10T23:59:59.245Z,3.29
